CRE weather

Grand Strand Airport
North Myrtle Beach, South Carolina, United States

Public forecast

Using degrees Fahrenheit for public forecast. Weather courtesy of forecast.io.

Current aviation weather report (METAR) for Grand Strand Airport

Retrieved 2019/12/07 20:53 UTC (39 minutes ago):

KCRE 072053Z 04007KT 10SM CLR 16/07 A3027 RMK AO1 SLP249 T01610067 53010

Aviation forecast (TAF) for Grand Strand Airport

Retrieved 2019/12/07 18:22 UTC (3 hours ago):

TAF KCRE 071720Z 0718/0818 03011KT P6SM SKC FM080000 03009KT P6SM SKC